Time;durP1;ratioP1;P1;durP2;ratioP2;P2;SDS_P1;SDS_P2;PMS_P1;PMS_P2;Temp;Humidity;BMP_temperature;BMP_pressure;BME280_temperature;BME280_humidity;BME280_pressure;Samples;Min_cycle;Max_cycle;Signal;HPM_P1;HPM_P2
2023/01/18 00:01:09;;;;;;;24.75;4.78;;;;;;;12.28;100.00;99197.13;5032171;28;20029;-66
2023/01/18 00:03:37;;;;;;;20.48;4.68;;;;;;;12.05;100.00;99191.38;5044718;28;20049;-67
2023/01/18 00:06:04;;;;;;;18.45;5.03;;;;;;;12.12;100.00;99208.03;5049981;28;20029;-67
2023/01/18 00:08:31;;;;;;;26.30;7.20;;;;;;;11.79;100.00;99123.00;5051016;28;20044;-67
2023/01/18 00:11:08;;;;;;;23.80;7.68;;;;;;;11.65;100.00;99120.22;5051550;28;20544;-67
2023/01/18 00:13:34;;;;;;;26.27;6.72;;;;;;;12.02;100.00;99191.50;5051730;28;20048;-66
2023/01/18 00:16:06;;;;;;;18.10;5.75;;;;;;;12.09;100.00;99197.97;5050311;28;20492;-67
2023/01/18 00:18:34;;;;;;;22.80;7.43;;;;;;;11.81;100.00;99133.94;5051893;28;20036;-67
2023/01/18 00:21:04;;;;;;;23.75;5.20;;;;;;;12.00;100.00;99146.66;5050628;28;20060;-67
2023/01/18 00:23:29;;;;;;;22.08;6.05;;;;;;;12.09;100.00;99205.63;5051135;28;20060;-67
2023/01/18 00:26:06;;;;;;;28.25;8.30;;;;;;;12.27;100.00;99214.13;5051452;28;20060;-66
2023/01/18 00:28:32;;;;;;;22.38;7.53;;;;;;;12.09;100.00;99192.88;5050223;28;20036;-67
2023/01/18 00:30:58;;;;;;;27.48;8.98;;;;;;;12.51;100.00;99212.97;5051261;28;20108;-66
2023/01/18 00:33:24;;;;;;;18.15;5.68;;;;;;;12.44;100.00;99213.34;5051505;28;20116;-66
2023/01/18 00:35:56;;;;;;;24.98;7.30;;;;;;;12.18;100.00;99210.28;5050949;28;20040;-67
2023/01/18 00:38:21;;;;;;;19.23;5.63;;;;;;;12.49;100.00;99207.13;5050625;28;20044;-67
2023/01/18 00:40:47;;;;;;;22.25;6.22;;;;;;;11.67;100.00;99079.44;5051014;28;20415;-66
2023/01/18 00:45:56;;;;;;;19.83;5.63;;;;;;;12.26;100.00;99128.38;5051393;28;20040;-66
2023/01/18 00:48:21;;;;;;;24.15;5.80;;;;;;;12.52;100.00;99194.22;5050866;28;20033;-67
2023/01/18 00:50:46;;;;;;;22.60;5.22;;;;;;;12.15;100.00;99121.25;5049785;28;20475;-67
2023/01/18 00:53:12;;;;;;;22.50;4.95;;;;;;;12.80;100.00;99202.16;5049406;28;20472;-66
2023/01/18 00:55:37;;;;;;;20.60;6.70;;;;;;;12.71;100.00;99194.16;5050586;28;20029;-67
2023/01/18 00:58:03;;;;;;;23.92;6.43;;;;;;;12.39;100.00;99120.97;5050546;28;20439;-66
2023/01/18 01:00:28;;;;;;;28.23;6.53;;;;;;;12.66;100.00;99175.69;5050319;28;20032;-67
2023/01/18 01:02:54;;;;;;;22.98;4.78;;;;;;;12.71;100.00;99178.84;5050261;28;20025;-67
2023/01/18 01:08:06;;;;;;;16.08;4.22;;;;;;;12.63;100.00;99115.47;5050272;28;20090;-66
2023/01/18 01:10:34;;;;;;;23.45;4.25;;;;;;;13.14;100.00;99183.47;5049815;28;20403;-66
2023/01/18 01:26:40;;;;;;;23.20;4.28;;;;;;;13.39;100.00;99188.16;5049643;28;20111;-66
2023/01/18 01:29:05;;;;;;;16.88;3.67;;;;;;;13.30;100.00;99183.50;5049638;28;20475;-67
2023/01/18 01:31:31;;;;;;;17.90;4.10;;;;;;;12.79;100.00;99115.53;5049329;28;20025;-66
2023/01/18 01:33:56;;;;;;;18.73;4.43;;;;;;;13.11;100.00;99168.31;5049183;28;20025;-68
2023/01/18 01:36:24;;;;;;;19.58;3.75;;;;;;;12.77;100.00;99117.34;5049545;28;20037;-66
2023/01/18 01:38:52;;;;;;;18.63;3.63;;;;;;;12.58;100.00;99088.53;5048413;28;20048;-68
2023/01/18 01:41:29;;;;;;;18.98;3.80;;;;;;;13.07;100.00;99154.88;5048582;28;20029;-67
2023/01/18 01:44:20;;;;;;;20.92;4.43;;;;;;;13.02;100.00;99179.78;5048536;28;20024;-67
2023/01/18 01:46:48;;;;;;;21.58;4.07;;;;;;;13.18;100.00;99179.03;5046192;28;20052;-67
2023/01/18 01:49:25;;;;;;;15.85;3.88;;;;;;;13.12;100.00;99185.28;5048298;28;20041;-67
2023/01/18 01:51:59;;;;;;;18.08;3.97;;;;;;;12.65;100.00;99106.03;5049785;28;20079;-67
2023/01/18 01:54:28;;;;;;;23.55;4.30;;;;;;;13.12;100.00;99185.28;5048651;28;20036;-67
2023/01/18 01:56:58;;;;;;;16.23;3.50;;;;;;;12.66;100.00;99101.72;5050142;28;20037;-67
2023/01/18 01:59:24;;;;;;;15.93;3.15;;;;;;;13.07;100.00;99147.22;5049533;28;20056;-68
2023/01/18 02:01:49;;;;;;;18.02;4.10;;;;;;;13.26;100.00;99156.47;5048572;28;20395;-66
2023/01/18 02:04:15;;;;;;;19.83;4.07;;;;;;;13.01;100.00;99141.59;5050156;28;20041;-66
2023/01/18 02:06:40;;;;;;;21.10;3.83;;;;;;;12.78;100.00;99096.00;5050018;28;20423;-66
2023/01/18 02:09:14;;;;;;;19.00;3.92;;;;;;;12.72;100.00;99096.31;5048583;28;20446;-66
2023/01/18 02:11:41;;;;;;;22.48;4.85;;;;;;;12.97;100.00;99175.81;5048367;28;20044;-66
2023/01/18 02:14:11;;;;;;;17.10;4.13;;;;;;;13.10;100.00;99170.94;5048016;28;20032;-67
2023/01/18 02:17:04;;;;;;;21.55;4.25;;;;;;;13.28;100.00;99160.59;5050073;28;20116;-66
2023/01/18 02:19:45;;;;;;;23.42;3.90;;;;;;;13.39;100.00;99154.94;5049661;28;20131;-66
2023/01/18 02:22:39;;;;;;;19.35;3.85;;;;;;;12.97;100.00;99089.88;5050280;28;20044;-65
2023/01/18 02:25:30;;;;;;;22.30;4.18;;;;;;;13.00;100.00;99102.50;5048100;28;20144;-66
2023/01/18 02:28:35;;;;;;;21.77;3.78;;;;;;;13.26;100.00;99170.06;5048207;28;20033;-67
2023/01/18 02:31:18;;;;;;;16.50;3.75;;;;;;;12.90;100.00;99105.59;5048226;28;20037;-66
2023/01/18 02:34:01;;;;;;;18.27;3.92;;;;;;;13.19;100.00;99162.81;5034140;28;20038;-66
2023/01/18 02:36:51;;;;;;;22.55;4.15;;;;;;;12.69;100.00;99063.34;5029742;28;20503;-66
2023/01/18 02:39:55;;;;;;;16.52;4.00;;;;;;;13.12;100.00;99139.34;5029585;28;20025;-66
2023/01/18 02:48:23;;;;;;;19.73;4.00;;;;;;;12.95;100.00;99111.28;5033395;28;20044;-67
2023/01/18 02:50:50;;;;;;;18.67;3.78;;;;;;;13.21;100.00;99133.75;5031493;28;20037;-67
2023/01/18 02:53:15;;;;;;;23.55;4.05;;;;;;;12.92;100.00;99058.69;5048677;28;20028;-65
2023/01/18 02:56:02;;;;;;;24.48;4.00;;;;;;;13.30;100.00;99138.38;5052756;28;20106;-66
2023/01/18 02:58:32;;;;;;;19.40;3.70;;;;;;;13.41;100.00;99141.19;5051296;28;20040;-66
2023/01/18 03:01:32;;;;;;;19.85;4.07;;;;;;;13.34;100.00;99134.75;5052717;28;20036;-66
2023/01/18 03:04:03;;;;;;;23.10;4.30;;;;;;;13.37;100.00;99126.13;5042354;28;20130;-67
2023/01/18 03:06:29;;;;;;;20.03;3.93;;;;;;;13.44;100.00;99135.09;5052551;28;20037;-66
2023/01/18 03:08:57;;;;;;;14.88;3.47;;;;;;;13.41;100.00;99135.28;5050834;28;20360;-65
2023/01/18 03:11:25;;;;;;;21.23;3.63;;;;;;;13.43;100.00;99144.47;5032493;28;20030;-66
2023/01/18 03:14:06;;;;;;;20.95;4.45;;;;;;;13.28;100.00;99147.84;5031525;28;20036;-65
2023/01/18 03:16:56;;;;;;;27.27;4.10;;;;;;;13.35;100.00;99133.84;5034169;28;20053;-66
2023/01/18 03:23:36;;;;;;;20.48;3.90;;;;;;;12.99;100.00;99143.41;5052163;28;20043;-66
2023/01/18 03:25:08;;;;;;;20.00;4.60;;;;;;;13.08;100.00;99150.59;5051051;28;20086;-66
2023/01/18 03:35:49;;;;;;;21.00;4.43;;;;;;;12.51;100.00;99038.78;5044480;28;20509;-65
2023/01/18 03:38:16;;;;;;;25.23;4.35;;;;;;;13.27;100.00;99179.38;5052284;28;20477;-65
2023/01/18 03:40:41;;;;;;;24.67;4.53;;;;;;;12.90;100.00;99090.28;5051721;28;20033;-65
2023/01/18 03:43:13;;;;;;;23.00;4.28;;;;;;;13.06;100.00;99167.72;5050534;28;20207;-66
2023/01/18 03:45:43;;;;;;;20.65;4.00;;;;;;;12.79;100.00;99106.16;5049079;28;20041;-66
2023/01/18 03:48:09;;;;;;;23.20;4.43;;;;;;;12.98;100.00;99167.25;5043464;28;20036;-66
2023/01/18 03:50:59;;;;;;;21.20;4.72;;;;;;;12.99;100.00;99182.47;5030775;28;20022;-66
2023/01/18 03:53:39;;;;;;;25.27;5.80;;;;;;;12.78;100.00;99180.19;5028517;28;20041;-68
2023/01/18 03:56:13;;;;;;;25.75;6.22;;;;;;;12.69;100.00;99176.38;5033927;28;20116;-66
2023/01/18 03:58:41;;;;;;;21.85;4.45;;;;;;;12.69;100.00;99153.44;5052285;28;20017;-66
2023/01/18 04:01:06;;;;;;;25.25;5.03;;;;;;;12.74;100.00;99127.66;5050683;28;20025;-66
2023/01/18 04:03:33;;;;;;;21.75;4.35;;;;;;;12.62;100.00;99107.88;5051975;28;20575;-66
2023/01/18 04:06:01;;;;;;;30.52;9.35;;;;;;;12.55;100.00;99099.75;5051937;28;20037;-66
2023/01/18 04:08:27;;;;;;;30.23;6.25;;;;;;;12.92;100.00;99157.34;5050193;28;20043;-66
2023/01/18 04:10:52;;;;;;;26.40;6.50;;;;;;;12.90;100.00;99154.06;5050058;28;20143;-66
2023/01/18 04:13:18;;;;;;;20.88;4.97;;;;;;;12.92;100.00;99091.03;5052086;28;20059;-65
2023/01/18 04:15:43;;;;;;;20.40;4.32;;;;;;;13.22;100.00;99153.28;5051594;28;20025;-66
2023/01/18 04:18:09;;;;;;;28.95;6.53;;;;;;;13.03;100.00;99137.25;5050541;28;20051;-66
2023/01/18 04:20:34;;;;;;;25.70;5.45;;;;;;;13.32;100.00;99162.09;5051263;28;20136;-67
2023/01/18 04:23:00;;;;;;;28.58;6.22;;;;;;;13.31;100.00;99165.53;5050306;28;20040;-65
2023/01/18 04:25:25;;;;;;;25.10;4.85;;;;;;;12.91;100.00;99102.16;5049667;28;20037;-66
2023/01/18 04:27:51;;;;;;;19.35;4.00;;;;;;;12.87;100.00;99078.53;5051018;28;20096;-66
2023/01/18 04:30:16;;;;;;;22.58;4.72;;;;;;;13.23;100.00;99156.66;5049065;28;20420;-66
2023/01/18 04:32:44;;;;;;;22.48;5.05;;;;;;;13.41;100.00;99156.50;5051224;28;20433;-65
2023/01/18 04:35:10;;;;;;;20.00;5.22;;;;;;;13.23;100.00;99137.03;5050238;28;20054;-66
2023/01/18 04:37:37;;;;;;;22.67;5.03;;;;;;;13.31;100.00;99146.88;5051146;28;20496;-66
2023/01/18 04:40:04;;;;;;;24.42;5.45;;;;;;;12.68;100.00;99036.19;5051162;28;20082;-69
2023/01/18 04:42:30;;;;;;;23.45;4.10;;;;;;;13.44;100.00;99165.72;5049646;28;20098;-69
2023/01/18 04:44:57;;;;;;;25.35;4.35;;;;;;;13.29;100.00;99129.06;5051315;28;20028;-70
2023/01/18 04:47:22;;;;;;;24.85;4.38;;;;;;;13.21;100.00;99105.66;5049647;28;20025;-70
2023/01/18 04:49:48;;;;;;;22.85;4.38;;;;;;;13.42;100.00;99150.50;5051018;28;20043;-69
2023/01/18 04:52:13;;;;;;;24.58;4.65;;;;;;;13.38;100.00;99155.84;5050633;28;20033;-68
2023/01/18 04:54:38;;;;;;;22.92;4.75;;;;;;;13.53;100.00;99149.91;5050896;28;20032;-68
2023/01/18 04:57:04;;;;;;;20.75;4.22;;;;;;;13.55;100.00;99143.00;5050608;28;20033;-68
2023/01/18 04:59:29;;;;;;;21.70;4.47;;;;;;;13.74;100.00;99159.84;5050323;28;20039;-67
2023/01/18 05:01:54;;;;;;;28.38;5.22;;;;;;;13.67;100.00;99168.72;5050337;28;20036;-66
2023/01/18 05:04:20;;;;;;;23.70;4.82;;;;;;;13.65;100.00;99159.47;5048938;28;20049;-69
2023/01/18 05:06:49;;;;;;;27.00;5.25;;;;;;;12.94;100.00;99044.13;5048524;28;20037;-67
2023/01/18 05:09:14;;;;;;;22.23;4.47;;;;;;;13.48;100.00;99157.00;5050010;28;20064;-67
2023/01/18 05:11:41;;;;;;;22.10;4.45;;;;;;;13.63;100.00;99154.47;5049127;28;20425;-68
2023/01/18 05:14:07;;;;;;;26.50;5.05;;;;;;;13.69;100.00;99172.00;5050774;28;20158;-69
2023/01/18 05:16:33;;;;;;;23.90;4.57;;;;;;;13.54;100.00;99144.75;5050162;28;20030;-70
2023/01/18 05:18:59;;;;;;;26.42;5.78;;;;;;;13.10;100.00;99071.41;5048809;28;20029;-69
2023/01/18 05:21:24;;;;;;;25.75;4.78;;;;;;;13.06;100.00;99075.84;5048540;28;20415;-69
2023/01/18 05:23:50;;;;;;;22.08;5.30;;;;;;;13.04;100.00;99075.94;5050463;28;20043;-68
2023/01/18 05:26:18;;;;;;;25.75;5.10;;;;;;;13.33;100.00;99137.41;5050108;28;20020;-67
2023/01/18 05:28:44;;;;;;;24.58;4.65;;;;;;;13.24;100.00;99125.94;5048212;28;20426;-67
2023/01/18 05:31:10;;;;;;;26.10;4.68;;;;;;;13.07;100.00;99087.72;5048194;28;20079;-68
2023/01/18 05:33:35;;;;;;;25.48;4.65;;;;;;;13.42;100.00;99163.28;5049678;28;20021;-67
2023/01/18 05:36:01;;;;;;;23.35;4.53;;;;;;;13.12;100.00;99103.59;5048186;28;20029;-67
2023/01/18 05:38:26;;;;;;;25.73;5.03;;;;;;;13.15;100.00;99100.91;5049031;28;20040;-67
2023/01/18 05:40:53;;;;;;;23.63;4.97;;;;;;;13.51;100.00;99182.41;5049897;28;20056;-67
2023/01/18 05:43:21;;;;;;;23.88;4.88;;;;;;;13.01;100.00;99114.34;5050029;28;20028;-67
2023/01/18 05:45:47;;;;;;;26.45;4.93;;;;;;;13.22;100.00;99195.81;5050106;28;20021;-69
2023/01/18 05:48:12;;;;;;;24.45;4.95;;;;;;;13.21;100.00;99209.50;5049614;28;20503;-70
2023/01/18 05:50:43;;;;;;;27.85;5.63;;;;;;;12.65;100.00;99138.34;5050017;28;20036;-68
2023/01/18 05:53:09;;;;;;;24.13;6.00;;;;;;;12.55;100.00;99147.34;5032538;28;20043;-69
2023/01/18 05:55:34;;;;;;;28.08;7.10;;;;;;;13.00;100.00;99224.97;5028075;28;20144;-68
2023/01/18 05:58:00;;;;;;;30.27;8.13;;;;;;;12.44;100.00;99145.31;5029135;28;20389;-69
2023/01/18 06:00:26;;;;;;;36.10;8.57;;;;;;;12.77;100.00;99207.44;5030714;28;20025;-69
2023/01/18 06:02:52;;;;;;;27.08;5.88;;;;;;;13.10;100.00;99233.00;5030461;28;20041;-69
2023/01/18 06:05:19;;;;;;;22.25;5.38;;;;;;;12.78;100.00;99157.22;5029661;28;20050;-69
2023/01/18 06:07:46;;;;;;;22.73;4.82;;;;;;;13.47;100.00;99222.56;5028392;28;20029;-69
2023/01/18 06:10:12;;;;;;;21.80;5.80;;;;;;;12.77;100.00;99137.72;5028098;28;20033;-69
2023/01/18 06:12:38;;;;;;;23.13;4.72;;;;;;;13.04;100.00;99149.94;5039604;28;20041;-69
2023/01/18 06:15:04;;;;;;;24.77;6.05;;;;;;;13.35;100.00;99200.22;5049346;28;20036;-69
2023/01/18 06:17:30;;;;;;;22.08;5.50;;;;;;;13.53;100.00;99214.59;5047662;28;20609;-69
2023/01/18 06:19:56;;;;;;;26.77;6.70;;;;;;;13.33;100.00;99196.91;5037352;28;20389;-69
2023/01/18 06:22:22;;;;;;;24.38;5.57;;;;;;;13.65;100.00;99224.16;5035088;28;20065;-69
2023/01/18 06:24:48;;;;;;;25.40;5.28;;;;;;;13.47;100.00;99153.63;5053656;28;20134;-69
2023/01/18 06:27:14;;;;;;;21.33;4.22;;;;;;;14.05;100.00;99153.03;5053321;28;20116;-70
2023/01/18 06:29:39;;;;;;;24.45;4.82;;;;;;;15.18;100.00;99236.88;5053396;28;20191;-69
2023/01/18 06:32:05;;;;;;;22.48;5.65;;;;;;;15.05;100.00;99230.84;5053398;28;20025;-69
2023/01/18 06:34:32;;;;;;;28.73;6.43;;;;;;;15.10;100.00;99159.69;5053350;28;20407;-68
2023/01/18 06:36:58;;;;;;;26.10;5.57;;;;;;;15.55;100.00;99164.63;5053443;28;20487;-69
2023/01/18 06:39:23;;;;;;;27.02;9.20;;;;;;;15.77;100.00;99224.84;5051963;28;20098;-70
2023/01/18 06:41:49;;;;;;;21.30;6.22;;;;;;;15.18;100.00;99144.69;5052018;28;20454;-71
2023/01/18 06:44:14;;;;;;;24.45;6.75;;;;;;;15.79;100.00;99234.06;5034597;28;20033;-70
2023/01/18 06:46:42;;;;;;;26.92;6.50;;;;;;;15.52;100.00;99234.00;5033693;28;20037;-70
2023/01/18 06:49:08;;;;;;;23.15;6.28;;;;;;;15.53;100.00;99155.38;5034153;28;20034;-69
2023/01/18 06:51:33;;;;;;;30.05;7.40;;;;;;;16.78;100.00;99193.50;5033090;28;20029;-70
2023/01/18 06:53:59;;;;;;;29.33;6.40;;;;;;;17.13;100.00;99251.03;5032864;28;20033;-69
2023/01/18 06:56:25;;;;;;;28.65;9.27;;;;;;;16.91;100.00;99166.09;5030887;28;20083;-69
2023/01/18 06:58:51;;;;;;;45.08;23.55;;;;;;;17.28;100.00;99221.78;5030941;28;20041;-70
2023/01/18 07:01:16;;;;;;;31.27;10.07;;;;;;;17.40;100.00;99166.16;5032351;28;20030;-70
2023/01/18 07:03:42;;;;;;;25.48;8.40;;;;;;;17.47;100.00;99179.41;5032272;28;20053;-70
2023/01/18 07:06:07;;;;;;;25.67;10.68;;;;;;;17.93;100.00;99227.56;5032933;28;20329;-69
2023/01/18 07:08:34;;;;;;;28.15;6.00;;;;;;;18.42;100.00;99237.75;5031938;28;20037;-69
2023/01/18 07:11:06;;;;;;;26.10;6.28;;;;;;;18.97;100.00;99244.91;5032050;28;20472;-69
2023/01/18 07:13:32;;;;;;;26.35;7.13;;;;;;;19.10;100.00;99167.47;5032685;28;20466;-69
2023/01/18 07:15:58;;;;;;;24.23;8.35;;;;;;;18.91;100.00;99155.19;5032139;28;20033;-68
2023/01/18 07:18:24;;;;;;;22.67;5.82;;;;;;;20.90;100.00;99221.88;5032746;28;20415;-69
2023/01/18 07:21:01;;;;;;;25.58;7.07;;;;;;;18.62;100.00;99190.03;5049626;28;20047;-70
2023/01/18 07:23:27;;;;;;;28.20;5.43;;;;;;;15.98;100.00;99233.75;5052230;28;20033;-69
2023/01/18 07:26:03;;;;;;;25.30;8.00;;;;;;;15.91;100.00;99232.47;5052217;28;20033;-69
2023/01/18 07:28:29;;;;;;;23.10;6.50;;;;;;;15.50;100.00;99182.03;5050517;28;20029;-70
2023/01/18 07:30:54;;;;;;;44.53;16.52;;;;;;;15.69;100.00;99191.16;5051574;28;20559;-70
2023/01/18 07:33:20;;;;;;;40.88;17.20;;;;;;;16.27;100.00;99250.72;5050086;28;20129;-70
2023/01/18 07:35:45;;;;;;;32.13;8.27;;;;;;;16.15;100.00;99254.03;5050880;28;20029;-70
2023/01/18 07:38:11;;;;;;;28.60;7.75;;;;;;;16.15;100.00;99239.47;5052001;28;20059;-70
2023/01/18 07:40:36;;;;;;;24.30;5.75;;;;;;;15.90;100.00;99185.53;5051602;28;20036;-70
2023/01/18 07:43:02;;;;;;;24.23;6.97;;;;;;;16.03;100.00;99180.44;5049046;28;20064;-70
2023/01/18 07:45:28;;;;;;;27.88;6.18;;;;;;;15.91;100.00;99186.34;5050491;28;20448;-70
2023/01/18 07:47:53;;;;;;;22.83;5.30;;;;;;;16.30;100.00;99235.94;5049234;28;20037;-70
2023/01/18 07:50:21;;;;;;;24.88;6.05;;;;;;;15.82;100.00;99194.59;5049300;28;20060;-70
2023/01/18 07:52:46;;;;;;;29.25;6.13;;;;;;;16.48;100.00;99275.00;5052197;28;20431;-69
2023/01/18 07:55:12;;;;;;;35.05;8.50;;;;;;;16.62;100.00;99263.91;5050927;28;20029;-69
2023/01/18 07:57:38;;;;;;;25.85;7.30;;;;;;;15.76;100.00;99149.69;5051675;28;20113;-68
2023/01/18 08:00:06;;;;;;;27.98;6.80;;;;;;;16.44;100.00;99269.25;5049741;28;20033;-70
2023/01/18 08:02:32;;;;;;;29.50;8.40;;;;;;;15.91;100.00;99217.94;5046661;28;20083;-69
2023/01/18 08:04:58;;;;;;;27.83;8.80;;;;;;;16.33;100.00;99216.97;5051713;28;20040;-69
2023/01/18 08:07:24;;;;;;;32.13;8.27;;;;;;;16.61;100.00;99275.09;5049668;28;20047;-69
2023/01/18 08:09:50;;;;;;;25.15;5.57;;;;;;;16.55;100.00;99254.94;5051227;28;20534;-69
2023/01/18 08:12:17;;;;;;;22.38;5.70;;;;;;;16.29;100.00;99193.28;5049799;28;20033;-70
2023/01/18 08:14:45;;;;;;;30.20;7.88;;;;;;;16.73;100.00;99240.94;5051783;28;20032;-69
2023/01/18 08:17:11;;;;;;;28.08;6.00;;;;;;;16.77;100.00;99261.19;5049002;28;20033;-69
2023/01/18 08:19:36;;;;;;;29.27;6.18;;;;;;;16.41;100.00;99219.88;5051404;28;20109;-69
2023/01/18 08:22:02;;;;;;;21.42;4.72;;;;;;;16.39;100.00;99173.81;5043925;28;20036;-68
2023/01/18 08:24:28;;;;;;;29.75;5.13;;;;;;;16.43;100.00;99195.78;5045639;28;20033;-69
2023/01/18 08:26:53;;;;;;;27.35;4.85;;;;;;;16.65;100.00;99231.16;5050607;28;20404;-69
2023/01/18 08:29:18;;;;;;;16.83;3.78;;;;;;;16.34;100.00;99172.47;5049678;28;20508;-69
2023/01/18 08:31:44;;;;;;;23.77;4.85;;;;;;;16.05;100.00;99114.50;5049908;28;20131;-69
2023/01/18 08:34:09;;;;;;;25.48;5.13;;;;;;;16.93;100.00;99225.88;5049192;28;20057;-69
2023/01/18 08:36:35;;;;;;;27.95;4.82;;;;;;;16.24;100.00;99113.22;5049883;28;20050;-69
2023/01/18 08:39:00;;;;;;;29.75;5.40;;;;;;;16.60;100.00;99173.38;5050881;28;20119;-70
2023/01/18 08:41:28;;;;;;;22.73;5.07;;;;;;;16.77;100.00;99194.44;5045509;28;20395;-70
2023/01/18 08:43:58;;;;;;;21.33;3.90;;;;;;;16.82;100.00;99181.28;5050506;28;20032;-69
2023/01/18 08:46:24;;;;;;;26.25;4.60;;;;;;;16.87;100.00;99199.78;5048744;28;20163;-69
2023/01/18 08:48:51;;;;;;;27.45;4.50;;;;;;;17.20;100.00;99270.28;5047434;28;20036;-69
2023/01/18 08:51:21;;;;;;;21.90;4.30;;;;;;;16.83;100.00;99191.47;5048803;28;20065;-70
2023/01/18 08:53:47;;;;;;;18.00;4.25;;;;;;;16.74;100.00;99191.25;5043590;28;20037;-68
2023/01/18 08:56:13;;;;;;;22.48;4.45;;;;;;;16.50;100.00;99147.47;5031243;28;20045;-68
2023/01/18 08:58:39;;;;;;;23.15;5.95;;;;;;;17.49;100.00;99264.97;5029967;28;20107;-68
2023/01/18 09:01:06;;;;;;;25.42;5.10;;;;;;;17.22;100.00;99191.38;5030255;28;20038;-70
2023/01/18 09:03:31;;;;;;;24.83;5.00;;;;;;;17.10;100.00;99127.97;5044055;28;20045;-70
2023/01/18 09:05:59;;;;;;;26.33;5.43;;;;;;;17.77;100.00;99239.00;5048286;28;20567;-69
2023/01/18 09:08:25;;;;;;;19.63;3.97;;;;;;;17.76;100.00;99222.78;5050099;28;20021;-69
2023/01/18 09:10:51;;;;;;;22.80;4.65;;;;;;;17.41;100.00;99175.50;5050150;28;20033;-70
2023/01/18 09:13:16;;;;;;;22.50;4.72;;;;;;;17.32;100.00;99158.97;5050357;28;20024;-69
2023/01/18 09:15:45;;;;;;;23.55;5.03;;;;;;;18.01;100.00;99212.41;5046871;28;20029;-69
2023/01/18 09:18:11;;;;;;;23.20;3.72;;;;;;;17.92;100.00;99246.50;5048349;28;20025;-68
2023/01/18 09:20:37;;;;;;;20.92;4.40;;;;;;;18.01;100.00;99221.88;5047348;28;20518;-69
2023/01/18 09:23:07;;;;;;;27.33;4.68;;;;;;;18.25;100.00;99242.47;5041338;28;20167;-68
2023/01/18 09:25:35;;;;;;;27.15;4.88;;;;;;;17.61;100.00;99125.34;5032337;28;20505;-68
2023/01/18 09:28:01;;;;;;;19.90;3.95;;;;;;;18.04;100.00;99224.25;5027914;28;20049;-68
2023/01/18 09:30:27;;;;;;;23.50;4.43;;;;;;;17.90;100.00;99193.53;5037601;28;20131;-68
2023/01/18 09:32:53;;;;;;;17.67;3.67;;;;;;;18.38;100.00;99246.63;5067059;28;20474;-69
2023/01/18 09:35:18;;;;;;;18.77;4.32;;;;;;;17.86;100.00;99171.53;5067914;28;20123;-69
2023/01/18 09:37:45;;;;;;;16.88;3.92;;;;;;;17.94;100.00;99246.38;5067482;28;20029;-69
2023/01/18 09:40:23;;;;;;;15.00;3.03;;;;;;;18.04;100.00;99177.94;5066207;28;20082;-68
2023/01/18 09:42:51;;;;;;;20.77;3.40;;;;;;;17.98;100.00;99184.34;5066109;28;20037;-67
2023/01/18 09:45:45;;;;;;;16.33;3.17;;;;;;;18.50;100.00;99250.13;5067777;28;20028;-69
2023/01/18 09:48:26;;;;;;;19.15;4.13;;;;;;;18.41;100.00;99230.97;5066244;28;20040;-69
2023/01/18 09:50:52;;;;;;;;;;;;;;;18.63;100.00;99258.59;5068458;28;20037;-69
2023/01/18 09:53:49;;;;;;;21.98;3.70;;;;;;;18.35;100.00;99246.84;5065876;28;20022;-69
2023/01/18 09:56:23;;;;;;;16.83;3.33;;;;;;;18.59;100.00;99257.19;5066093;28;20519;-68
2023/01/18 09:59:04;;;;;;;15.60;3.38;;;;;;;18.50;100.00;99276.66;5067128;28;20063;-70
2023/01/18 10:01:34;;;;;;;17.65;3.72;;;;;;;18.67;100.00;99288.34;5067687;28;20089;-69
2023/01/18 10:04:07;;;;;;;16.80;3.60;;;;;;;18.49;100.00;99272.47;5068620;28;20080;-71
2023/01/18 10:06:45;;;;;;;19.85;3.70;;;;;;;18.55;100.00;99237.72;5066838;28;20414;-68
2023/01/18 10:09:23;;;;;;;18.77;2.95;;;;;;;18.84;100.00;99291.34;5063138;28;20036;-70
2023/01/18 10:12:03;;;;;;;25.38;3.85;;;;;;;18.82;100.00;99282.06;5049340;28;20119;-69
2023/01/18 10:14:51;;;;;;;17.48;3.55;;;;;;;18.85;100.00;99261.25;5046238;28;20029;-68
2023/01/18 10:17:21;;;;;;;18.05;3.53;;;;;;;19.01;100.00;99266.94;5046147;28;20518;-68
2023/01/18 10:19:47;;;;;;;18.65;3.50;;;;;;;18.83;100.00;99255.41;5047776;28;20089;-68
2023/01/18 10:22:36;;;;;;;18.33;3.50;;;;;;;18.84;100.00;99286.19;5047491;28;20165;-69
2023/01/18 10:25:20;;;;;;;19.63;3.78;;;;;;;18.77;100.00;99254.09;5047698;28;20575;-71
2023/01/18 10:27:57;;;;;;;15.70;3.58;;;;;;;18.85;100.00;99302.47;5046771;28;20052;-69
2023/01/18 10:30:38;;;;;;;18.30;3.13;;;;;;;18.26;100.00;99232.09;5047712;28;20045;-70
2023/01/18 10:33:26;;;;;;;19.05;3.35;;;;;;;18.84;100.00;99280.22;5048096;28;20037;-69
2023/01/18 10:35:57;;;;;;;17.55;3.70;;;;;;;18.79;100.00;99262.53;5040801;28;20037;-69
2023/01/18 10:38:27;;;;;;;17.63;3.65;;;;;;;18.41;100.00;99194.94;5035697;28;20435;-71
2023/01/18 10:40:57;;;;;;;17.50;3.28;;;;;;;18.65;100.00;99295.38;5027544;28;20038;-70
2023/01/18 10:43:25;;;;;;;17.50;3.63;;;;;;;18.69;100.00;99291.63;5025771;28;20033;-69
2023/01/18 10:45:54;;;;;;;16.52;3.75;;;;;;;18.45;100.00;99289.06;5028357;28;20061;-70
2023/01/18 10:48:19;;;;;;;17.80;3.38;;;;;;;18.32;100.00;99303.72;5026102;28;20064;-69
2023/01/18 10:50:51;;;;;;;26.42;3.55;;;;;;;17.84;100.00;99233.34;5027751;28;20065;-71
2023/01/18 10:53:22;;;;;;;;;;;;;;;18.22;100.00;99302.72;5027969;28;20037;-69
2023/01/18 10:56:18;;;;;;;16.30;3.28;;;;;;;18.18;100.00;99309.00;5028073;28;20376;-70
2023/01/18 10:58:49;;;;;;;20.02;3.80;;;;;;;17.99;100.00;99296.59;5027871;28;20128;-70
2023/01/18 11:01:15;;;;;;;17.73;3.20;;;;;;;18.29;100.00;99314.22;5028233;28;20479;-69
2023/01/18 11:03:47;;;;;;;16.02;3.65;;;;;;;18.01;100.00;99258.72;5027392;28;20054;-70
2023/01/18 11:06:15;;;;;;;23.23;3.47;;;;;;;18.47;100.00;99325.81;5029538;28;20071;-70
2023/01/18 11:08:41;;;;;;;16.77;3.60;;;;;;;17.92;100.00;99217.38;5027579;28;20045;-70
2023/01/18 11:11:17;;;;;;;17.45;3.85;;;;;;;18.76;100.00;99342.59;5032708;28;20064;-70
2023/01/18 11:13:45;;;;;;;24.42;3.92;;;;;;;18.50;100.00;99274.09;5032578;28;20041;-70
2023/01/18 11:16:12;;;;;;;17.70;3.60;;;;;;;18.99;100.00;99349.47;5030729;28;20037;-71
2023/01/18 11:19:01;;;;;;;20.02;3.22;;;;;;;19.18;100.00;99345.56;5031267;28;20033;-69
2023/01/18 11:21:42;;;;;;;13.82;3.38;;;;;;;19.09;100.00;99338.50;5038162;28;20060;-71
2023/01/18 11:24:16;;;;;;;14.70;3.08;;;;;;;18.70;100.00;99337.88;5035113;28;20032;-70
2023/01/18 11:27:01;;;;;;;17.60;3.65;;;;;;;18.72;100.00;99348.06;5049274;28;20043;-69
2023/01/18 11:29:45;;;;;;;20.55;4.13;;;;;;;18.45;100.00;99298.53;5048609;28;20044;-68
2023/01/18 11:32:38;;;;;;;21.77;4.00;;;;;;;18.66;100.00;99349.31;5049948;28;20041;-69
2023/01/18 11:35:08;;;;;;;17.63;4.25;;;;;;;18.20;100.00;99277.06;5045960;28;20094;-69
2023/01/18 11:37:38;;;;;;;20.10;3.67;;;;;;;18.64;100.00;99334.94;5050173;28;20032;-68
2023/01/18 11:40:19;;;;;;;17.13;3.35;;;;;;;18.65;100.00;99350.28;5051095;28;20140;-70
2023/01/18 11:42:47;;;;;;;19.10;4.13;;;;;;;18.63;100.00;99352.13;5051424;28;20037;-71
2023/01/18 11:45:28;;;;;;;21.00;4.20;;;;;;;17.78;100.00;99238.09;5048389;28;20036;-71
2023/01/18 11:48:29;;;;;;;23.13;3.80;;;;;;;18.51;100.00;99339.28;5048345;28;20071;-69
2023/01/18 11:51:14;;;;;;;21.25;4.03;;;;;;;18.08;100.00;99284.84;5044770;28;20047;-70
2023/01/18 11:53:53;;;;;;;19.10;4.00;;;;;;;18.52;100.00;99333.22;5048336;28;20033;-70
2023/01/18 11:56:38;;;;;;;22.52;3.63;;;;;;;18.60;100.00;99342.03;5049022;28;20068;-70
2023/01/18 11:59:12;;;;;;;17.65;3.75;;;;;;;18.08;100.00;99266.84;5049531;28;20029;-69
2023/01/18 12:02:04;;;;;;;22.77;3.78;;;;;;;18.36;100.00;99325.69;5048174;28;20043;-69
2023/01/18 12:04:33;;;;;;;;;;;;;;;18.42;100.00;99327.06;5051730;28;20059;-69
2023/01/18 12:07:30;;;;;;;19.73;4.30;;;;;;;18.31;100.00;99321.81;5050690;28;19916;-70